»·PEaware :: N262H NONE-L52

N262H :: NONE-L52

FLIGHT INFORMATION

Flight Status: Arrived
Operator: Privately registered:
United States
More flights under this callsign
Pilot: Paul K. (16555)
Aircraft: BRITTEN NORMAN BN-2 ISLANDER DEFENDER
(BN2P)
More flights by this aircraft type
Origin: NONE
Destination: L52 Oceano Co
United States
More flights between these airports :: More routes between these airports
Route:
File this flight plan on PilotEdge
Remarks:
Altitude:
(Current/Filed)
8,500ft
Speed:
(Current/Filed)
0kts
Departed: 10-Feb-21 07:49 PM
Arrived: 10-Feb-21 08:22 PM
Distance/Time
Traveled:
Not Available
Distance/Time
To Go:
Arrived

Flight Plot

Page will automatically refresh every two minutes.

Flight plan parsing failed; only flown route is shown


Map Options




Map Legend


Flown Route
Filed Route
Departure Airport
Arrival Airport
Navaid (VOR, NDB)
Fix

Horizontal Profiles

Position Reports

Time Latitude Longitude Heading Altitude Ground
Speed
10-Feb-21 19:47 34.889637 -119.147663 288 8614ft 177kts
10-Feb-21 19:48 34.902403 -119.206712 287 8542ft 179kts
10-Feb-21 19:49 34.918284 -119.264055 293 8542ft 178kts
10-Feb-21 19:50 34.934587 -119.321162 291 8542ft 178kts
10-Feb-21 19:51 34.950117 -119.378313 291 8542ft 177kts
10-Feb-21 19:52 34.965708 -119.435506 291 8542ft 177kts
10-Feb-21 19:53 34.981311 -119.492739 291 8542ft 177kts
10-Feb-21 19:54 34.996672 -119.549865 291 8541ft 177kts
10-Feb-21 19:55 35.008540 -119.607782 278 8542ft 179kts
10-Feb-21 19:56 35.016277 -119.667520 288 8543ft 177kts
10-Feb-21 19:57 35.029495 -119.725527 288 8542ft 177kts
10-Feb-21 19:58 35.042230 -119.783821 288 8542ft 177kts
10-Feb-21 19:59 35.055028 -119.842169 288 8542ft 177kts
10-Feb-21 20:00 35.067830 -119.900329 288 8542ft 177kts
10-Feb-21 20:01 35.080472 -119.958366 288 8540ft 176kts
10-Feb-21 20:02 35.089823 -120.017211 278 8542ft 177kts
10-Feb-21 20:03 35.093210 -120.077280 276 8536ft 177kts
10-Feb-21 20:04 35.093683 -120.137514 275 8408ft 182kts
10-Feb-21 20:05 35.094505 -120.199496 276 7606ft 187kts
10-Feb-21 20:06 35.095357 -120.261995 275 6832ft 183kts
10-Feb-21 20:07 35.095563 -120.322870 275 6409ft 174kts
10-Feb-21 20:08 35.096380 -120.382032 273 6046ft 183kts
10-Feb-21 20:09 35.093776 -120.441248 272 5475ft 165kts
10-Feb-21 20:10 35.086983 -120.487999 266 4207ft 118kts
10-Feb-21 20:11 35.079285 -120.524283 266 3127ft 101kts
10-Feb-21 20:12 35.071868 -120.558004 272 2009ft 100kts
10-Feb-21 20:13 35.081188 -120.585607 314 1465ft 92kts
10-Feb-21 20:14 35.092798 -120.606725 310 747ft 71kts
10-Feb-21 20:15 35.103188 -120.625842 309 233ft 78kts
10-Feb-21 20:16 35.112223 -120.657378 232 1093ft 138kts
10-Feb-21 20:17 35.085373 -120.644916 111 1097ft 127kts
10-Feb-21 20:18 35.071069 -120.604970 75 904ft 105kts
10-Feb-21 20:19 35.088969 -120.599914 320 467ft 80kts
10-Feb-21 20:20 35.101432 -120.622106 301 20ft 49kts
10-Feb-21 20:21 35.102804 -120.623592 225 19ft 0kts
10-Feb-21 20:22 35.102804 -120.623592 225 19ft 0kts
10-Feb-21 20:23 35.102804 -120.623592 225 19ft 0kts
10-Feb-21 20:24 35.102804 -120.623592 225 19ft 0kts
10-Feb-21 20:25 35.102804 -120.623592 225 19ft 0kts
10-Feb-21 20:26 35.102804 -120.623592 225 19ft 0kts
10-Feb-21 20:27 35.102804 -120.623592 225 19ft 0kts
10-Feb-21 20:28 35.101747 -120.622328 209 20ft 9kts
10-Feb-21 20:29 35.099493 -120.619635 137 20ft 9kts
10-Feb-21 20:30 35.099523 -120.619503 20 20ft 0kts
10-Feb-21 20:31 35.103882 -120.627576 300 316ft 84kts
10-Feb-21 20:32 35.098343 -120.657051 185 1041ft 152kts
10-Feb-21 20:33 35.078760 -120.619234 97 1489ft 128kts
10-Feb-21 20:34 35.094796 -120.585481 16 2203ft 119kts
10-Feb-21 20:35 35.126739 -120.585014 354 2789ft 119kts
10-Feb-21 20:36 35.162306 -120.583239 2 2632ft 132kts

Navigation Log

Ident Type
Flight plan parsing failed, navigation log unavailable